Time;durP1;ratioP1;P1;durP2;ratioP2;P2;SDS_P1;SDS_P2;PMS_P1;PMS_P2;Temp;Humidity;BMP_temperature;BMP_pressure;BME280_temperature;BME280_humidity;BME280_pressure;Samples;Min_cycle;Max_cycle;Signal;HPM_P1;HPM_P2
2021/10/16 00:00:35;;;;;;;538.80;492.58;;;14.10;79.40;;;13.51;100.00;100985.13;4990069;28;20434;-69
2021/10/16 00:03:03;;;;;;;360.30;264.67;;;14.20;79.70;;;13.62;100.00;100981.06;4991426;28;20281;-69
2021/10/16 00:05:31;;;;;;;348.23;217.30;;;14.10;79.20;;;13.45;100.00;100975.47;4990785;28;20298;-69
2021/10/16 00:07:59;;;;;;;348.60;199.02;;;14.00;79.30;;;13.36;100.00;100980.00;4991606;28;20235;-69
2021/10/16 00:10:29;;;;;;;343.42;196.73;;;13.90;79.70;;;13.33;100.00;100975.19;4990903;28;20286;-69
2021/10/16 00:12:57;;;;;;;340.45;186.65;;;13.90;79.80;;;13.21;100.00;100970.28;4991233;28;20216;-69
2021/10/16 00:15:26;;;;;;;341.73;184.63;;;13.90;80.60;;;13.13;100.00;100977.22;4990261;28;21240;-69
2021/10/16 00:17:54;;;;;;;472.90;427.63;;;13.80;81.40;;;13.06;100.00;100976.78;4990144;28;20426;-69
2021/10/16 00:20:22;;;;;;;349.60;224.35;;;13.70;81.30;;;13.20;100.00;100962.41;4990616;28;20243;-68
2021/10/16 00:22:50;;;;;;;343.45;201.50;;;13.80;80.90;;;13.19;100.00;100961.63;4990957;28;20223;-66
2021/10/16 00:25:19;;;;;;;339.17;179.95;;;13.80;80.90;;;13.13;100.00;100958.19;4990683;28;20259;-68
2021/10/16 00:27:48;;;;;;;469.25;424.35;;;13.80;80.40;;;13.05;100.00;100958.88;4989937;28;20442;-69
2021/10/16 00:30:16;;;;;;;354.35;233.55;;;13.70;80.70;;;13.11;100.00;100956.91;4990886;28;20722;-68
2021/10/16 00:32:44;;;;;;;346.15;202.05;;;13.70;80.70;;;13.08;100.00;100955.59;4991317;28;20674;-69
2021/10/16 00:35:12;;;;;;;488.55;443.20;;;13.70;82.20;;;13.05;100.00;100960.78;4984794;28;21003;-70
2021/10/16 00:37:40;;;;;;;351.63;226.68;;;13.80;81.60;;;13.15;100.00;100955.19;4122760;28;10000999;-68
2021/10/16 00:40:10;;;;;;;343.58;194.25;;;13.80;81.20;;;13.14;100.00;100948.97;4990458;28;20243;-68
2021/10/16 00:42:48;;;;;;;337.30;178.98;;;13.70;81.00;;;13.17;100.00;100941.31;4990029;28;20216;-68
2021/10/16 00:45:17;;;;;;;339.47;177.93;;;13.70;81.60;;;13.11;100.00;100938.72;4989872;28;20266;-67
2021/10/16 00:47:45;;;;;;;335.85;171.88;;;13.70;81.00;;;13.11;100.00;100944.13;4990329;28;20680;-68
2021/10/16 00:50:14;;;;;;;471.88;426.85;;;13.70;81.50;;;13.01;100.00;100941.59;4990708;28;20427;-68
2021/10/16 00:52:43;;;;;;;348.63;216.13;;;13.70;81.60;;;13.12;100.00;100924.03;4995199;28;20274;-68
2021/10/16 00:55:13;;;;;;;339.80;188.07;;;13.70;82.70;;;13.16;100.00;100940.53;4125965;28;10000861;-68
2021/10/16 00:57:42;;;;;;;473.42;428.33;;;13.70;82.00;;;13.07;100.00;100937.66;4993351;28;20947;-68
2021/10/16 01:00:14;;;;;;;353.83;237.45;;;13.70;82.90;;;13.19;100.00;100942.63;4994321;28;20290;-68
2021/10/16 01:02:43;;;;;;;513.90;468.13;;;13.80;82.50;;;13.20;100.00;100933.34;4993714;28;20465;-68
2021/10/16 01:05:12;;;;;;;352.20;246.40;;;13.90;82.40;;;13.33;100.00;100935.25;4993983;28;20215;-68
2021/10/16 01:07:41;;;;;;;485.55;440.55;;;13.90;81.70;;;13.19;100.00;100941.81;4991888;28;20951;-69
2021/10/16 01:10:13;;;;;;;549.20;503.17;;;13.90;81.70;;;13.24;100.00;100931.66;4991699;28;20414;-68
2021/10/16 01:12:43;;;;;;;547.47;501.55;;;13.90;82.20;;;13.20;100.00;100930.66;4992272;28;20792;-71
2021/10/16 01:15:16;;;;;;;551.03;504.97;;;13.90;82.10;;;13.11;100.00;100924.31;4991870;28;20402;-70
2021/10/16 01:17:47;;;;;;;552.08;505.98;;;13.90;82.30;;;13.06;100.00;100924.41;4992707;28;20508;-69
2021/10/16 01:20:18;;;;;;;555.83;509.63;;;13.80;82.40;;;13.05;100.00;100911.94;4992474;28;20438;-70
2021/10/16 01:22:49;;;;;;;554.90;508.77;;;13.80;82.00;;;12.98;100.00;100917.00;4993032;28;20492;-69
2021/10/16 01:25:19;;;;;;;346.97;232.03;;;13.70;82.60;;;13.02;100.00;100913.34;4994034;28;20239;-69
2021/10/16 01:27:49;;;;;;;481.02;436.25;;;13.60;83.20;;;12.95;100.00;100909.44;4993261;28;20468;-69
2021/10/16 01:30:21;;;;;;;345.83;228.57;;;13.60;83.70;;;13.10;100.00;100904.50;4994068;28;20260;-69
2021/10/16 01:32:49;;;;;;;473.70;428.97;;;13.70;84.90;;;13.06;100.00;100900.78;4992613;28;20462;-68
2021/10/16 01:35:18;;;;;;;517.95;472.35;;;13.70;84.20;;;13.09;100.00;100902.91;4992715;28;20813;-69
2021/10/16 01:37:49;;;;;;;536.43;490.43;;;13.80;85.00;;;13.09;100.00;100896.69;4992325;28;20507;-68
2021/10/16 01:40:18;;;;;;;351.63;230.87;;;13.80;85.10;;;13.19;100.00;100891.03;4994057;28;20503;-69
2021/10/16 01:42:46;;;;;;;500.23;454.67;;;13.80;85.70;;;13.16;100.00;100894.38;4992769;28;20517;-68
2021/10/16 01:45:16;;;;;;;352.25;241.30;;;13.90;86.60;;;13.24;100.00;100887.41;4993636;28;20635;-67
2021/10/16 01:47:52;;;;;;;343.63;204.73;;;13.90;86.50;;;13.22;100.00;100887.72;4993810;28;20698;-67
2021/10/16 01:50:23;;;;;;;340.33;190.63;;;13.90;86.70;;;13.24;100.00;100888.19;4994320;28;20319;-68
2021/10/16 01:52:52;;;;;;;465.00;420.13;;;13.80;86.90;;;13.24;100.00;100885.50;4992857;28;20426;-68
2021/10/16 01:55:21;;;;;;;349.77;218.20;;;13.90;86.80;;;13.30;100.00;100888.88;4993835;28;20239;-67
2021/10/16 01:57:50;;;;;;;488.30;443.10;;;13.90;86.70;;;13.25;100.00;100887.09;4993122;28;20889;-68
2021/10/16 02:00:18;;;;;;;351.27;233.07;;;14.00;86.80;;;13.23;100.00;100888.50;4994112;28;21104;-67
2021/10/16 02:02:46;;;;;;;343.37;192.97;;;13.90;86.70;;;13.10;100.00;100879.28;4993136;28;20278;-67
2021/10/16 02:05:14;;;;;;;347.27;190.10;;;13.70;86.50;;;12.99;100.00;100875.13;4992856;28;20286;-67
2021/10/16 02:07:44;;;;;;;473.00;427.70;;;13.60;86.50;;;12.90;100.00;100885.09;4992155;28;20422;-67
2021/10/16 02:10:14;;;;;;;346.83;216.17;;;13.60;87.30;;;12.93;100.00;100879.06;4993855;28;20228;-67
2021/10/16 02:12:42;;;;;;;484.45;439.05;;;13.60;87.50;;;12.82;100.00;100888.53;4991634;28;20426;-67
2021/10/16 02:15:10;;;;;;;353.48;231.82;;;13.60;87.40;;;12.79;100.00;100881.81;4993184;28;20555;-67
2021/10/16 02:17:38;;;;;;;489.45;443.85;;;13.50;87.10;;;12.68;100.00;100885.81;4992657;28;20422;-68
2021/10/16 02:20:09;;;;;;;356.33;236.60;;;13.40;87.50;;;12.70;100.00;100880.91;4993828;28;20306;-68
2021/10/16 02:22:37;;;;;;;483.23;437.63;;;13.40;87.90;;;12.58;100.00;100878.69;4991842;28;20454;-69
2021/10/16 02:25:06;;;;;;;356.98;230.80;;;13.30;87.90;;;12.64;100.00;100870.47;4989971;28;20224;-65
2021/10/16 02:27:36;;;;;;;483.25;437.73;;;13.30;88.00;;;12.57;100.00;100870.84;4992415;28;20488;-65
2021/10/16 02:30:05;;;;;;;349.73;213.97;;;13.30;88.30;;;12.64;100.00;100863.13;4993661;28;20310;-65
2021/10/16 02:32:33;;;;;;;341.70;179.83;;;13.30;88.00;;;12.65;100.00;100866.63;4993775;28;20208;-65
2021/10/16 02:35:01;;;;;;;451.87;406.80;;;13.30;88.30;;;12.58;100.00;100869.78;4992067;28;20426;-65
2021/10/16 02:37:29;;;;;;;520.53;474.40;;;13.30;88.60;;;12.64;100.00;100867.75;4990930;28;20903;-69
2021/10/16 02:39:57;;;;;;;354.47;229.53;;;13.30;89.00;;;12.77;100.00;100856.88;5012255;28;20243;-67
2021/10/16 02:42:25;;;;;;;344.00;189.67;;;13.40;89.20;;;12.79;100.00;100854.69;5012031;28;20278;-68
2021/10/16 02:44:55;;;;;;;341.43;171.50;;;13.50;89.20;;;12.78;100.00;100850.34;5001859;28;20255;-66
2021/10/16 02:47:23;;;;;;;345.20;182.27;;;13.40;89.40;;;12.77;100.00;100851.44;4993191;28;20249;-66
2021/10/16 02:49:51;;;;;;;444.02;399.00;;;13.40;89.50;;;12.76;100.00;100849.84;4991740;28;20481;-66
2021/10/16 02:52:19;;;;;;;348.93;209.53;;;13.50;90.00;;;12.87;100.00;100850.44;4993452;28;20219;-67
2021/10/16 02:54:47;;;;;;;351.73;196.95;;;13.50;90.00;;;12.93;100.00;100852.75;4993254;28;20274;-67
2021/10/16 02:57:15;;;;;;;474.73;428.92;;;13.60;90.20;;;12.92;100.00;100853.06;4991455;28;20807;-67
2021/10/16 02:59:43;;;;;;;357.83;225.82;;;13.70;90.30;;;12.99;100.00;100848.81;4993209;28;20231;-69
2021/10/16 03:02:13;;;;;;;489.08;443.38;;;13.60;90.20;;;12.96;100.00;100854.84;4991790;28;20516;-69
2021/10/16 03:04:41;;;;;;;357.70;233.80;;;13.70;90.30;;;13.03;100.00;100854.44;4991726;28;20255;-69
2021/10/16 03:07:09;;;;;;;354.38;211.15;;;13.70;90.30;;;13.12;100.00;100863.50;4991400;28;20212;-68
2021/10/16 03:09:37;;;;;;;501.08;454.88;;;13.70;90.50;;;13.11;100.00;100851.81;4990557;28;20420;-69
2021/10/16 03:12:06;;;;;;;358.55;233.63;;;13.80;90.50;;;13.21;100.00;100837.22;4993134;28;20263;-68
2021/10/16 03:14:34;;;;;;;499.42;453.75;;;13.90;90.30;;;13.14;100.00;100853.94;4990535;28;20426;-68
2021/10/16 03:17:03;;;;;;;361.58;250.77;;;13.80;90.00;;;13.21;100.00;100855.41;4992351;28;20251;-68
2021/10/16 03:19:32;;;;;;;502.20;456.20;;;13.90;89.80;;;13.14;100.00;100850.41;4991175;28;20836;-68
2021/10/16 03:22:00;;;;;;;566.75;519.67;;;13.80;89.80;;;13.18;100.00;100851.41;4991486;28;20422;-68
2021/10/16 03:24:28;;;;;;;360.02;253.63;;;13.90;90.00;;;13.25;100.00;100853.72;4992606;28;20682;-68
2021/10/16 03:26:56;;;;;;;354.85;219.02;;;13.90;89.90;;;13.20;100.00;100851.09;4992380;28;20307;-68
2021/10/16 03:29:24;;;;;;;495.58;449.48;;;13.80;89.70;;;13.11;100.00;100853.72;4991058;28;20537;-68
2021/10/16 03:31:52;;;;;;;358.73;243.05;;;13.80;90.00;;;13.11;100.00;100845.59;4992647;28;20286;-68
2021/10/16 03:34:20;;;;;;;500.17;454.48;;;13.80;90.00;;;12.95;100.00;100845.09;4991062;28;20963;-68
2021/10/16 03:36:50;;;;;;;355.15;231.52;;;13.70;89.60;;;12.91;100.00;100848.72;4992001;28;20726;-68
2021/10/16 03:39:19;;;;;;;494.50;448.80;;;13.50;89.40;;;12.77;100.00;100845.22;4991191;28;20418;-66
2021/10/16 03:41:47;;;;;;;354.53;227.10;;;13.50;89.60;;;12.77;100.00;100839.78;4992265;28;20599;-66
2021/10/16 03:44:15;;;;;;;354.17;196.53;;;13.40;89.40;;;12.79;100.00;100843.81;4992460;28;20706;-68
2021/10/16 03:46:43;;;;;;;470.30;424.50;;;13.40;90.10;;;12.82;100.00;100839.69;4990586;28;20949;-68
2021/10/16 03:49:11;;;;;;;365.27;239.35;;;13.50;90.50;;;12.98;100.00;100841.00;4992207;28;20274;-67
2021/10/16 03:51:39;;;;;;;486.73;440.63;;;13.60;90.60;;;13.00;100.00;100839.56;4990896;28;20419;-67
2021/10/16 03:54:08;;;;;;;364.90;245.83;;;13.70;90.60;;;13.18;100.00;100835.13;4992255;28;20212;-68
2021/10/16 03:56:36;;;;;;;491.98;445.70;;;13.80;90.60;;;13.20;100.00;100834.78;4990357;28;20488;-67
2021/10/16 03:59:05;;;;;;;563.03;515.70;;;13.90;90.60;;;13.27;100.00;100829.75;4990615;28;20422;-68
2021/10/16 04:01:33;;;;;;;581.47;533.88;;;13.90;90.40;;;13.30;100.00;100834.56;4990544;28;20462;-67
2021/10/16 04:04:01;;;;;;;594.22;546.42;;;14.00;90.30;;;13.33;100.00;100826.63;4990819;28;20829;-67
2021/10/16 04:06:29;;;;;;;359.02;254.57;;;14.10;90.20;;;13.44;100.00;100821.72;4991498;28;20242;-66
2021/10/16 04:08:57;;;;;;;525.05;478.50;;;14.00;90.00;;;13.37;100.00;100819.47;4990592;28;20793;-65
2021/10/16 04:11:26;;;;;;;572.97;525.78;;;14.10;90.10;;;13.40;100.00;100813.41;4990461;28;20956;-66
2021/10/16 04:13:54;;;;;;;366.23;263.27;;;14.10;90.10;;;13.44;100.00;100810.88;4991775;28;20658;-65
2021/10/16 04:16:23;;;;;;;354.20;210.30;;;14.10;89.90;;;13.36;100.00;100814.34;4991362;28;20215;-66
2021/10/16 04:18:51;;;;;;;346.57;195.27;;;14.00;90.10;;;13.25;100.00;100812.97;4992041;28;20285;-67
2021/10/16 04:21:19;;;;;;;347.58;186.77;;;13.90;90.20;;;13.20;100.00;100808.47;4991781;28;20290;-67
2021/10/16 04:23:47;;;;;;;454.87;409.63;;;13.80;90.30;;;13.08;100.00;100814.44;4990255;28;20422;-67
2021/10/16 04:26:15;;;;;;;356.43;230.73;;;13.80;90.40;;;13.14;100.00;100802.34;4990949;28;20271;-67
2021/10/16 04:28:45;;;;;;;479.40;433.33;;;13.80;90.60;;;13.11;100.00;100808.38;4990331;28;20510;-67
2021/10/16 04:31:13;;;;;;;363.80;244.77;;;13.90;90.90;;;13.15;100.00;100808.59;4991783;28;20228;-67
2021/10/16 04:33:41;;;;;;;347.23;198.77;;;13.80;90.70;;;13.09;100.00;100804.38;4991596;28;20216;-67
2021/10/16 04:36:11;;;;;;;473.83;427.98;;;13.70;90.60;;;13.02;100.00;100809.38;4989727;28;20433;-67
2021/10/16 04:38:44;;;;;;;358.10;234.40;;;13.70;90.80;;;13.10;100.00;100797.84;4991723;28;20215;-67
2021/10/16 04:41:13;;;;;;;354.07;204.20;;;13.80;90.90;;;13.14;100.00;100807.78;4991418;28;20236;-67
2021/10/16 04:43:42;;;;;;;471.52;425.63;;;13.80;91.00;;;13.16;100.00;100803.97;4990283;28;20473;-67
2021/10/16 04:46:13;;;;;;;358.87;227.50;;;13.90;91.20;;;13.26;100.00;100798.28;4990936;28;20302;-67
2021/10/16 04:48:43;;;;;;;353.73;204.27;;;13.90;91.30;;;13.30;100.00;100799.28;4991405;28;20220;-68
2021/10/16 04:51:12;;;;;;;476.63;430.92;;;14.00;91.40;;;13.29;100.00;100803.09;4989931;28;20421;-68
2021/10/16 04:53:41;;;;;;;361.05;246.80;;;14.00;91.40;;;13.37;100.00;100805.09;4991444;28;20275;-67
2021/10/16 04:56:09;;;;;;;502.95;456.30;;;14.00;91.40;;;13.42;100.00;100802.22;4989572;28;20524;-67
2021/10/16 04:58:38;;;;;;;364.77;247.63;;;14.10;91.70;;;13.58;100.00;100811.63;4991561;28;20215;-67
2021/10/16 05:01:06;;;;;;;526.70;479.70;;;14.20;91.70;;;13.61;100.00;100816.44;4989722;28;20844;-67
2021/10/16 05:03:35;;;;;;;364.30;259.43;;;14.30;91.70;;;13.72;100.00;100800.66;4991582;28;20216;-67
2021/10/16 05:06:03;;;;;;;526.17;479.67;;;14.40;91.50;;;13.69;100.00;100818.41;4989400;28;20426;-69
2021/10/16 05:08:32;;;;;;;592.92;545.30;;;14.40;91.30;;;13.68;100.00;100809.44;4990029;28;20473;-68
2021/10/16 05:11:00;;;;;;;590.50;542.90;;;14.40;91.00;;;13.65;100.00;100810.06;4989917;28;20465;-66
2021/10/16 05:13:28;;;;;;;368.40;268.60;;;14.40;90.80;;;13.68;100.00;100806.72;4991257;28;20243;-69
2021/10/16 05:15:56;;;;;;;354.13;223.90;;;14.30;90.60;;;13.59;100.00;100814.00;4990738;28;20625;-68
2021/10/16 05:18:26;;;;;;;503.47;457.17;;;14.20;90.60;;;13.51;100.00;100816.69;4989959;28;20874;-67
2021/10/16 05:20:56;;;;;;;362.30;243.50;;;14.20;90.90;;;13.58;100.00;100817.88;4990990;28;20331;-67
2021/10/16 05:23:24;;;;;;;492.60;446.60;;;14.20;90.90;;;13.56;100.00;100822.78;4989924;28;20557;-68
2021/10/16 05:25:53;;;;;;;361.77;243.23;;;14.20;90.80;;;13.66;100.00;100824.44;4990652;28;20208;-68
2021/10/16 05:28:21;;;;;;;347.40;212.17;;;14.30;90.90;;;13.64;100.00;100830.22;4991219;28;20247;-67
2021/10/16 05:30:49;;;;;;;496.43;450.47;;;14.30;90.50;;;13.56;100.00;100824.69;4989567;28;20426;-67
2021/10/16 05:33:18;;;;;;;552.72;505.77;;;14.30;90.60;;;13.56;100.00;100827.41;4989686;28;20434;-68
2021/10/16 05:35:46;;;;;;;563.03;516.05;;;14.30;90.70;;;13.48;100.00;100828.97;4989210;28;20561;-68
2021/10/16 05:38:15;;;;;;;573.13;526.08;;;14.20;90.30;;;13.50;100.00;100831.38;4992743;28;20414;-68
2021/10/16 05:40:44;;;;;;;587.15;540.10;;;14.20;90.50;;;13.21;100.00;100820.94;4992990;28;20500;-67
2021/10/16 05:43:12;;;;;;;358.20;251.17;;;14.00;88.70;;;13.08;100.00;100821.78;4994667;28;20678;-67
2021/10/16 05:45:40;;;;;;;348.63;212.40;;;13.70;89.90;;;12.87;100.00;100828.72;4994011;28;20215;-67
2021/10/16 05:48:08;;;;;;;454.77;409.87;;;13.50;89.20;;;12.66;100.00;100832.97;4993200;28;20426;-67
2021/10/16 05:50:37;;;;;;;499.17;453.58;;;13.40;89.70;;;12.55;100.00;100838.59;4992945;28;20418;-67
2021/10/16 05:53:06;;;;;;;359.30;231.60;;;13.30;90.00;;;12.57;100.00;100846.44;4994468;28;20220;-68
2021/10/16 05:55:36;;;;;;;469.20;423.77;;;13.20;90.10;;;12.51;100.00;100847.66;4992580;28;20481;-69
2021/10/16 05:58:04;;;;;;;547.97;500.98;;;13.20;90.20;;;12.53;100.00;100850.84;4992959;28;20422;-67
2021/10/16 06:00:32;;;;;;;533.78;487.13;;;13.30;90.10;;;12.59;100.00;100855.06;4992607;28;20437;-66
2021/10/16 06:03:00;;;;;;;354.13;228.93;;;13.30;90.00;;;12.65;100.00;100853.06;4994567;28;20267;-66
2021/10/16 06:05:28;;;;;;;477.35;431.83;;;13.30;89.80;;;12.54;100.00;100855.19;4992158;28;20464;-67
2021/10/16 06:07:57;;;;;;;353.07;216.77;;;13.20;89.70;;;12.64;100.00;100849.56;4994287;28;20239;-67
2021/10/16 06:10:25;;;;;;;347.55;199.00;;;13.20;89.90;;;12.63;100.00;100837.09;4993831;28;20256;-68
2021/10/16 06:12:54;;;;;;;442.55;397.55;;;13.20;89.60;;;12.57;100.00;100851.88;4992855;28;20536;-68
2021/10/16 06:15:23;;;;;;;512.63;466.30;;;13.20;89.70;;;12.58;100.00;100859.69;4992325;28;20529;-68
2021/10/16 06:17:51;;;;;;;347.43;203.57;;;13.20;89.60;;;12.65;100.00;100851.16;4993945;28;20212;-68
2021/10/16 06:20:19;;;;;;;342.80;174.93;;;13.20;89.50;;;12.64;100.00;100856.91;4993707;28;20648;-68
2021/10/16 06:22:49;;;;;;;438.33;393.38;;;13.20;90.00;;;12.59;100.00;100860.50;4992631;28;20481;-68
2021/10/16 06:25:17;;;;;;;496.67;450.58;;;13.30;90.30;;;12.68;100.00;100868.72;4991876;28;20418;-68
2021/10/16 06:27:45;;;;;;;521.70;475.45;;;13.30;90.40;;;12.70;100.00;100861.13;4992615;28;20429;-68
2021/10/16 06:30:15;;;;;;;535.10;488.77;;;13.40;90.10;;;12.74;100.00;100865.63;4992264;28;20422;-67
2021/10/16 06:32:43;;;;;;;350.20;223.00;;;13.40;90.00;;;12.78;100.00;100860.41;4993745;28;20263;-67
2021/10/16 06:35:11;;;;;;;497.50;451.42;;;13.40;90.00;;;12.71;100.00;100870.84;4991805;28;20573;-69
2021/10/16 06:37:39;;;;;;;358.90;237.63;;;13.40;90.20;;;12.81;100.00;100866.03;4993652;28;20258;-68
2021/10/16 06:40:09;;;;;;;479.53;433.40;;;13.40;90.10;;;12.80;100.00;100867.13;4992073;28;20414;-66
2021/10/16 06:42:37;;;;;;;358.23;225.60;;;13.40;90.20;;;12.87;100.00;100866.72;4993624;28;20286;-67
2021/10/16 06:45:06;;;;;;;483.50;437.70;;;13.50;90.20;;;12.86;100.00;100870.53;4991623;28;20426;-68
2021/10/16 06:47:36;;;;;;;547.65;500.77;;;13.50;90.60;;;12.92;100.00;100864.69;4991972;28;20418;-67
2021/10/16 06:50:05;;;;;;;357.35;233.02;;;13.60;90.60;;;12.99;100.00;100875.94;4993303;28;20327;-69
2021/10/16 06:52:33;;;;;;;354.45;215.50;;;13.60;90.60;;;13.03;100.00;100876.16;4993365;28;20271;-67
2021/10/16 06:55:01;;;;;;;492.83;446.48;;;13.70;90.70;;;13.02;100.00;100880.78;4992018;28;20868;-68
2021/10/16 06:57:29;;;;;;;354.65;233.25;;;13.70;90.90;;;13.16;100.00;100883.50;4992873;28;20687;-66
2021/10/16 06:59:57;;;;;;;351.40;201.45;;;13.80;90.90;;;13.21;100.00;100877.94;4993130;28;20236;-69
2021/10/16 07:02:25;;;;;;;494.80;448.60;;;13.80;90.90;;;13.26;100.00;100885.16;4991916;28;20488;-67
2021/10/16 07:04:56;;;;;;;364.17;250.10;;;13.90;91.10;;;13.36;100.00;100882.22;4993132;28;20274;-68
2021/10/16 07:07:24;;;;;;;502.55;456.50;;;14.00;91.00;;;13.41;100.00;100882.09;4991709;28;20449;-67
2021/10/16 07:09:52;;;;;;;364.85;251.38;;;14.10;91.00;;;13.56;100.00;100893.44;4993024;28;20268;-67
2021/10/16 07:12:22;;;;;;;356.80;221.27;;;14.20;91.00;;;13.72;100.00;100880.28;4993086;28;20208;-68
2021/10/16 07:14:50;;;;;;;354.73;212.57;;;14.40;90.80;;;13.86;100.00;100889.16;4992935;28;20748;-69
2021/10/16 07:17:18;;;;;;;352.05;202.90;;;14.50;90.70;;;13.96;100.00;100888.09;4992503;28;20211;-68
2021/10/16 07:19:50;;;;;;;351.80;205.98;;;14.60;90.80;;;13.99;100.00;100892.94;4992815;28;20286;-68
2021/10/16 07:22:20;;;;;;;507.55;461.45;;;14.60;90.80;;;13.97;100.00;100901.41;4991703;28;20430;-67
2021/10/16 07:24:48;;;;;;;366.60;263.00;;;14.60;90.80;;;14.13;100.00;100894.44;4992986;28;20266;-67
2021/10/16 07:27:17;;;;;;;548.30;501.65;;;14.70;90.80;;;14.20;100.00;100894.81;4990985;28;20477;-66
2021/10/16 09:55:12;;;;;;;614.33;568.70;;;22.30;71.30;;;21.51;100.00;100969.44;5031527;28;20670;-69
2021/10/16 09:58:54;;;;;;;638.25;592.17;;;22.10;71.50;;;21.28;100.00;100974.03;5030634;28;20215;-70
2021/10/16 10:01:22;;;;;;;948.33;892.80;;;22.00;71.20;;;21.02;100.00;100964.38;5031082;28;20465;-69
2021/10/16 10:03:50;;;;;;;722.30;673.92;;;21.80;71.10;;;21.12;100.00;100965.81;5012854;28;20227;-69
2021/10/16 10:06:19;;;;;;;680.60;633.20;;;21.80;71.70;;;21.09;100.00;100969.28;5028427;28;20211;-71
2021/10/16 10:08:49;;;;;;;625.30;579.53;;;21.70;72.40;;;21.03;100.00;100962.41;5031061;28;20211;-70
2021/10/16 10:11:19;;;;;;;628.67;582.88;;;21.60;71.30;;;21.00;100.00;100958.44;5030934;28;20296;-70
2021/10/16 10:13:49;;;;;;;618.63;573.10;;;21.60;71.70;;;20.93;100.00;100980.25;5031311;28;20225;-71
2021/10/16 10:16:17;;;;;;;631.28;584.80;;;21.60;72.00;;;20.93;100.00;100976.69;5032296;28;20218;-71
2021/10/16 10:19:01;;;;;;;602.60;557.17;;;21.50;74.10;;;21.03;100.00;100976.97;5031558;28;20568;-71
2021/10/16 10:21:34;;;;;;;615.75;569.78;;;21.60;75.10;;;21.11;100.00;100977.94;5031344;28;20261;-71
2021/10/16 10:24:05;;;;;;;929.35;874.20;;;21.70;74.90;;;21.12;100.00;100966.63;5029439;28;20418;-69
2021/10/16 10:26:36;;;;;;;691.13;643.88;;;21.80;75.00;;;21.43;100.00;100971.22;5031532;28;20265;-71
2021/10/16 10:29:07;;;;;;;651.03;604.63;;;22.00;73.70;;;21.45;100.00;100977.19;5029850;28;20215;-69
2021/10/16 10:32:03;;;;;;;930.30;875.30;;;22.00;72.60;;;21.51;100.00;100974.94;5030386;28;20414;-71
2021/10/16 10:34:42;;;;;;;689.83;642.58;;;22.10;72.90;;;21.80;100.00;100969.69;5031382;28;20222;-70
2021/10/16 10:37:13;;;;;;;669.15;622.42;;;22.30;72.70;;;21.96;100.00;100977.91;5032095;28;20772;-68
2021/10/16 10:39:51;;;;;;;641.08;595.08;;;22.40;69.60;;;21.93;100.00;100989.66;5031095;28;20214;-70
2021/10/16 10:42:44;;;;;;;656.42;610.10;;;22.50;69.40;;;21.76;100.00;100984.56;5031887;28;20235;-70
2021/10/16 10:45:41;;;;;;;648.95;602.70;;;22.40;68.50;;;21.54;100.00;100991.53;5031329;28;20210;-71
2021/10/16 10:48:18;;;;;;;629.25;583.45;;;22.10;68.40;;;21.43;100.00;100990.50;5022241;28;20305;-68
2021/10/16 10:51:00;;;;;;;632.65;586.75;;;22.00;69.40;;;21.46;100.00;100995.28;5031186;28;20296;-71
2021/10/16 10:53:43;;;;;;;617.80;572.25;;;22.00;67.50;;;21.70;100.00;100994.25;5031690;28;20754;-69
2021/10/16 10:56:24;;;;;;;625.55;579.85;;;22.20;67.80;;;22.01;100.00;100996.13;5030853;28;20253;-71
2021/10/16 10:59:14;;;;;;;623.28;577.65;;;22.50;69.00;;;21.92;100.00;100990.00;5030849;28;20211;-71
2021/10/16 11:01:59;;;;;;;633.35;587.42;;;22.50;66.60;;;21.82;100.00;100985.06;5032455;28;20601;-70
2021/10/16 11:04:46;;;;;;;629.67;584.13;;;22.40;67.10;;;21.80;100.00;100983.47;5051168;28;20216;-70
2021/10/16 11:07:37;;;;;;;637.25;591.50;;;22.40;69.10;;;21.85;100.00;100978.84;5051170;28;20765;-70
2021/10/16 11:10:07;;;;;;;653.70;607.47;;;22.40;70.70;;;21.89;100.00;100980.50;5050336;28;20736;-71
2021/10/16 11:12:37;;;;;;;642.42;596.38;;;22.50;70.90;;;21.89;100.00;100980.50;5049123;28;20225;-68
2021/10/16 11:15:12;;;;;;;954.10;898.37;;;22.50;71.10;;;21.90;100.00;100975.81;5049121;28;20421;-70
2021/10/16 11:17:42;;;;;;;733.92;685.55;;;22.60;70.70;;;22.04;100.00;100978.88;5050423;28;20444;-70
2021/10/16 11:20:13;;;;;;;689.28;642.35;;;22.60;70.70;;;22.02;100.00;100981.97;5049408;28;20244;-71
2021/10/16 11:22:50;;;;;;;681.92;635.00;;;22.70;70.90;;;22.02;100.00;100989.44;5050833;28;20230;-69
2021/10/16 11:25:22;;;;;;;674.42;627.70;;;22.60;70.40;;;21.99;100.00;100987.41;5050407;28;20237;-68
2021/10/16 11:28:08;;;;;;;948.05;892.63;;;22.60;71.40;;;21.96;100.00;100985.38;5048505;28;20840;-70
2021/10/16 11:30:40;;;;;;;747.88;699.20;;;22.70;71.60;;;21.96;100.00;100983.44;5050527;28;20578;-71
2021/10/16 11:33:11;;;;;;;701.05;653.70;;;22.60;71.70;;;21.99;100.00;100984.66;5050458;28;20298;-71
2021/10/16 11:35:40;;;;;;;686.60;639.55;;;22.60;72.50;;;22.15;100.00;100983.44;5050007;28;20210;-70
2021/10/16 11:38:10;;;;;;;682.50;635.60;;;22.80;71.10;;;22.30;100.00;100979.78;5049761;28;20214;-72
2021/10/16 11:40:40;;;;;;;672.33;625.80;;;22.90;70.50;;;22.74;100.00;100982.16;5050536;28;20296;-71
2021/10/16 11:43:13;;;;;;;689.85;642.88;;;23.30;69.40;;;23.07;100.00;100967.75;5050472;28;20267;-70
2021/10/16 11:45:45;;;;;;;690.85;644.03;;;23.50;66.30;;;23.05;100.00;100954.31;5050341;28;20695;-70
2021/10/16 11:48:16;;;;;;;972.20;916.20;;;23.60;64.30;;;23.05;100.00;100948.81;5048305;28;20429;-69
2021/10/16 11:50:48;;;;;;;758.42;709.63;;;23.60;63.90;;;23.31;100.00;100950.78;5050263;28;20240;-68
2021/10/16 11:53:18;;;;;;;735.53;687.33;;;23.80;63.20;;;23.17;100.00;100951.34;5050300;28;20679;-69
2021/10/16 11:55:48;;;;;;;725.58;677.80;;;23.80;59.60;;;22.97;100.00;100955.38;5047306;28;20671;-68
2021/10/16 11:58:18;;;;;;;724.75;676.88;;;23.60;63.30;;;22.96;100.00;100955.75;5049317;28;20209;-68
2021/10/16 12:00:49;;;;;;;971.40;915.58;;;23.50;62.50;;;23.03;100.00;100955.88;5048587;28;20512;-68
2021/10/16 12:03:19;;;;;;;759.45;711.03;;;23.60;63.20;;;23.31;100.00;100951.59;5050175;28;20272;-69
2021/10/16 12:05:52;;;;;;;993.40;936.72;;;23.90;63.50;;;23.58;100.00;100949.63;5046016;28;20421;-72
2021/10/16 12:08:23;;;;;;;791.10;741.63;;;24.20;63.30;;;23.99;100.00;100941.41;5049398;28;20271;-70
2021/10/16 12:10:53;;;;;;;786.65;737.33;;;24.50;63.00;;;24.07;100.00;100938.38;5049112;28;20233;-71
2021/10/16 12:13:35;;;;;;;1011.38;953.92;;;24.50;60.50;;;23.78;100.00;100928.94;5047270;28;20406;-68
2021/10/16 12:16:15;;;;;;;783.95;734.90;;;24.40;60.30;;;23.80;100.00;100934.88;5048759;28;20217;-70
2021/10/16 12:18:53;;;;;;;765.58;716.88;;;24.30;58.90;;;24.04;100.00;100925.31;5047665;28;20679;-72